Terminal Aerodrome Forecast
Issued by NWS Duluth, MN

Home | Current Version | Previous Version | Text Only | Print | Product List | Glossary On
Versions: 1 2 3 4 5 6 7 8 9 10 11 12 13 14 15
540
FTUS43 KDLH 110547
TAFDLH
TAF
KDLH 110547Z 1106/1206 35009KT P6SM SKC
     FM111400 29007KT P6SM SCT080 BKN150
     FM120000 28009KT P6SM VCSH BKN030 OVC050
     FM120400 30010KT P6SM BKN040 OVC080=

USA.gov is the U.S. government's official web portal to all federal, state and local government web resources and services.